SHT8Y EGLL-EGPH
Flight info
| Callsign | SHT8Y |
|---|---|
| Flight time | 0h 59m |
| Altitude | 32000 |
| Route | ULTIB T420 TNT UN57 POL UN601 RIBEL DCT INPIP |
| Aircraft | A20N/M-SDE2E3FGHIRWXY/LB1 |
Departure
| Time | 2026-05-05 21:30 |
|---|---|
| Airport | London Heathrow Airport (EGLL) |
Arrival
| Time | 2026-05-05 22:30 |
|---|---|
| Airport | Edinburgh Airport (EGPH) |
| Time | Latitude | Longitude | Altitude | Speed | Heading |
|---|---|---|---|---|---|
| 2026-05-05 21:16 | 51.46930 | -0.48647 | 93 ft | 0 kts | 360° |
| 2026-05-05 21:23 | 51.46908 | -0.48647 | 93 ft | 4 kts | 360° |
| 2026-05-05 21:23 | 51.46888 | -0.48647 | 91 ft | 4 kts | 336° |
| 2026-05-05 21:23 | 51.46877 | -0.48621 | 92 ft | 3 kts | 270° |
| 2026-05-05 21:23 | 51.46877 | -0.48591 | 89 ft | 0 kts | 270° |
| 2026-05-05 21:27 | 51.46877 | -0.48649 | 90 ft | 10 kts | 270° |
| 2026-05-05 21:27 | 51.46864 | -0.48747 | 93 ft | 8 kts | 211° |
| 2026-05-05 21:27 | 51.46814 | -0.48750 | 90 ft | 7 kts | 178° |
| 2026-05-05 21:27 | 51.46800 | -0.48750 | 91 ft | 0 kts | 178° |
| 2026-05-05 21:28 | 51.46792 | -0.48749 | 91 ft | 4 kts | 178° |
| 2026-05-05 21:28 | 51.46734 | -0.48749 | 89 ft | 12 kts | 180° |
| 2026-05-05 21:28 | 51.46648 | -0.48750 | 89 ft | 12 kts | 181° |
| 2026-05-05 21:28 | 51.46574 | -0.48783 | 92 ft | 11 kts | 200° |
| 2026-05-05 21:29 | 51.46505 | -0.48773 | 91 ft | 12 kts | 149° |
| 2026-05-05 21:29 | 51.46478 | -0.48636 | 89 ft | 14 kts | 89° |
| 2026-05-05 21:29 | 51.46478 | -0.48484 | 89 ft | 13 kts | 89° |
| 2026-05-05 21:29 | 51.46480 | -0.48144 | 91 ft | 60 kts | 89° |
| 2026-05-05 21:30 | 51.46484 | -0.47105 | 93 ft | 124 kts | 89° |
| 2026-05-05 21:30 | 51.46483 | -0.45506 | 264 ft | 154 kts | 88° |
| 2026-05-05 21:30 | 51.46494 | -0.43755 | 799 ft | 161 kts | 89° |
| 2026-05-05 21:30 | 51.46495 | -0.41923 | 1408 ft | 167 kts | 90° |
| 2026-05-05 21:31 | 51.46501 | -0.40044 | 2042 ft | 169 kts | 89° |
| 2026-05-05 21:31 | 51.46512 | -0.38138 | 2629 ft | 176 kts | 93° |
| 2026-05-05 21:31 | 51.45924 | -0.36321 | 2895 ft | 200 kts | 133° |
| 2026-05-05 21:31 | 51.44952 | -0.34577 | 3204 ft | 216 kts | 116° |
| 2026-05-05 21:32 | 51.44662 | -0.32144 | 3514 ft | 241 kts | 79° |
| 2026-05-05 21:32 | 51.45470 | -0.29742 | 4258 ft | 250 kts | 41° |
| 2026-05-05 21:32 | 51.47037 | -0.28617 | 5134 ft | 254 kts | 8° |
| 2026-05-05 21:32 | 51.48260 | -0.28499 | 5741 ft | 257 kts | 1° |
| 2026-05-05 21:33 | 51.50064 | -0.28533 | 6635 ft | 261 kts | 359° |
| 2026-05-05 21:33 | 51.51893 | -0.28557 | 7544 ft | 264 kts | 360° |
| 2026-05-05 21:33 | 51.53846 | -0.28524 | 8535 ft | 267 kts | 0° |
| 2026-05-05 21:33 | 51.55737 | -0.28454 | 9494 ft | 271 kts | 1° |
| 2026-05-05 21:34 | 51.57670 | -0.28360 | 10336 ft | 278 kts | 1° |
| 2026-05-05 21:34 | 51.59516 | -0.28261 | 10695 ft | 299 kts | 1° |
| 2026-05-05 21:34 | 51.62273 | -0.28102 | 11364 ft | 322 kts | 1° |
| 2026-05-05 21:34 | 51.63774 | -0.28025 | 11847 ft | 328 kts | 359° |
| 2026-05-05 21:35 | 51.66090 | -0.28463 | 12657 ft | 333 kts | 343° |
| 2026-05-05 21:35 | 51.68419 | -0.29964 | 13580 ft | 338 kts | 333° |
| 2026-05-05 21:35 | 51.70531 | -0.31792 | 14372 ft | 343 kts | 329° |
| 2026-05-05 21:35 | 51.72604 | -0.33827 | 15167 ft | 347 kts | 327° |
| 2026-05-05 21:36 | 51.74670 | -0.35944 | 15939 ft | 352 kts | 327° |
| 2026-05-05 21:36 | 51.76749 | -0.38078 | 16745 ft | 356 kts | 327° |
| 2026-05-05 21:36 | 51.78866 | -0.40220 | 17423 ft | 361 kts | 327° |
| 2026-05-05 21:36 | 51.81016 | -0.42359 | 18121 ft | 367 kts | 327° |
| 2026-05-05 21:37 | 51.83219 | -0.44521 | 18737 ft | 372 kts | 327° |
| 2026-05-05 21:37 | 51.85445 | -0.46689 | 19425 ft | 375 kts | 327° |
| 2026-05-05 21:37 | 51.87687 | -0.48866 | 20136 ft | 377 kts | 327° |
| 2026-05-05 21:37 | 51.89942 | -0.51053 | 20850 ft | 379 kts | 327° |
| 2026-05-05 21:38 | 51.92221 | -0.53268 | 21518 ft | 382 kts | 327° |
| 2026-05-05 21:38 | 51.94512 | -0.55499 | 22172 ft | 385 kts | 327° |
| 2026-05-05 21:38 | 51.96813 | -0.57744 | 22807 ft | 388 kts | 327° |
| 2026-05-05 21:38 | 51.99136 | -0.60015 | 23433 ft | 391 kts | 327° |
| 2026-05-05 21:39 | 52.01473 | -0.62302 | 23950 ft | 394 kts | 326° |
| 2026-05-05 21:39 | 52.03838 | -0.64621 | 24372 ft | 399 kts | 326° |
| 2026-05-05 21:39 | 52.06222 | -0.66961 | 24788 ft | 404 kts | 326° |
| 2026-05-05 21:39 | 52.08643 | -0.69341 | 25206 ft | 408 kts | 326° |
| 2026-05-05 21:40 | 52.11083 | -0.71742 | 25656 ft | 411 kts | 326° |
| 2026-05-05 21:40 | 52.13541 | -0.74163 | 26082 ft | 415 kts | 326° |
| 2026-05-05 21:40 | 52.16020 | -0.76608 | 26497 ft | 418 kts | 326° |
| 2026-05-05 21:40 | 52.18519 | -0.79076 | 26902 ft | 422 kts | 326° |
| 2026-05-05 21:41 | 52.21033 | -0.81562 | 27312 ft | 425 kts | 326° |
| 2026-05-05 21:41 | 52.23575 | -0.84080 | 27706 ft | 428 kts | 326° |
| 2026-05-05 21:41 | 52.26136 | -0.86619 | 28093 ft | 432 kts | 326° |
| 2026-05-05 21:41 | 52.28709 | -0.89175 | 28492 ft | 435 kts | 325° |
| 2026-05-05 21:42 | 52.31309 | -0.91760 | 28844 ft | 439 kts | 325° |
| 2026-05-05 21:42 | 52.33919 | -0.94360 | 29231 ft | 442 kts | 325° |
| 2026-05-05 21:42 | 52.36554 | -0.96987 | 29598 ft | 444 kts | 325° |
| 2026-05-05 21:42 | 52.39201 | -0.99631 | 29978 ft | 447 kts | 325° |
| 2026-05-05 21:43 | 52.41860 | -1.02289 | 30399 ft | 447 kts | 325° |
| 2026-05-05 21:43 | 52.44512 | -1.04943 | 30745 ft | 448 kts | 326° |
| 2026-05-05 21:43 | 52.47172 | -1.07608 | 31183 ft | 447 kts | 326° |
| 2026-05-05 21:43 | 52.49818 | -1.10263 | 31632 ft | 445 kts | 326° |
| 2026-05-05 21:44 | 52.52459 | -1.12918 | 31981 ft | 447 kts | 326° |
| 2026-05-05 21:44 | 52.55110 | -1.15587 | 32018 ft | 445 kts | 326° |
| 2026-05-05 21:44 | 52.60379 | -1.20902 | 32022 ft | 443 kts | 326° |
| 2026-05-05 21:45 | 52.65636 | -1.26221 | 32020 ft | 443 kts | 326° |
| 2026-05-05 21:45 | 52.70890 | -1.31551 | 32020 ft | 443 kts | 326° |
| 2026-05-05 21:46 | 52.76127 | -1.36884 | 32055 ft | 443 kts | 326° |
| 2026-05-05 21:46 | 52.81353 | -1.42223 | 32047 ft | 440 kts | 327° |
| 2026-05-05 21:47 | 52.86543 | -1.47541 | 32046 ft | 439 kts | 327° |
| 2026-05-05 21:47 | 52.88741 | -1.49796 | 32048 ft | 439 kts | 326° |
| 2026-05-05 21:53 | 52.92663 | -1.53830 | 32046 ft | 438 kts | 327° |
| 2026-05-05 21:53 | 52.97816 | -1.59140 | 32043 ft | 435 kts | 326° |
| 2026-05-05 21:54 | 53.02963 | -1.64459 | 32046 ft | 435 kts | 326° |
| 2026-05-05 21:54 | 53.06887 | -1.67748 | 32051 ft | 438 kts | 335° |
| 2026-05-05 21:55 | 53.12550 | -1.71484 | 32044 ft | 438 kts | 338° |
| 2026-05-05 21:55 | 53.18280 | -1.75028 | 32054 ft | 439 kts | 338° |
| 2026-05-05 21:56 | 53.23873 | -1.78465 | 32048 ft | 439 kts | 338° |
| 2026-05-05 21:56 | 53.29607 | -1.82023 | 32063 ft | 440 kts | 337° |
| 2026-05-05 21:57 | 53.35352 | -1.85616 | 32060 ft | 441 kts | 337° |
| 2026-05-05 21:57 | 53.40165 | -1.88637 | 32058 ft | 441 kts | 337° |
| 2026-05-05 21:58 | 53.45916 | -1.92256 | 32069 ft | 441 kts | 337° |
| 2026-05-05 21:58 | 53.51665 | -1.95883 | 32068 ft | 441 kts | 337° |
| 2026-05-05 21:59 | 53.57409 | -1.99518 | 32074 ft | 441 kts | 337° |
| 2026-05-05 21:59 | 53.63150 | -2.03161 | 32072 ft | 441 kts | 337° |
| 2026-05-05 22:00 | 53.68892 | -2.06814 | 32070 ft | 441 kts | 337° |
| 2026-05-05 22:00 | 53.74616 | -2.10477 | 32074 ft | 440 kts | 336° |
| 2026-05-05 22:01 | 53.80346 | -2.14324 | 32066 ft | 440 kts | 335° |
| 2026-05-05 22:01 | 53.86024 | -2.18228 | 32068 ft | 440 kts | 335° |
| 2026-05-05 22:02 | 53.91700 | -2.22135 | 32062 ft | 440 kts | 335° |
| 2026-05-05 22:02 | 53.97386 | -2.26046 | 32076 ft | 440 kts | 335° |
| 2026-05-05 22:03 | 54.03057 | -2.29951 | 32083 ft | 440 kts | 335° |
| 2026-05-05 22:03 | 54.08726 | -2.33866 | 32080 ft | 440 kts | 335° |
| 2026-05-05 22:04 | 54.14402 | -2.37797 | 32072 ft | 440 kts | 335° |
| 2026-05-05 22:04 | 54.20073 | -2.41737 | 32073 ft | 440 kts | 335° |
| 2026-05-05 22:05 | 54.25742 | -2.45686 | 32082 ft | 440 kts | 335° |
| 2026-05-05 22:05 | 54.31409 | -2.49647 | 32083 ft | 440 kts | 335° |
| 2026-05-05 22:06 | 54.37087 | -2.53626 | 32092 ft | 440 kts | 335° |
| 2026-05-05 22:06 | 54.42761 | -2.57615 | 32089 ft | 440 kts | 335° |
| 2026-05-05 22:07 | 54.48423 | -2.61607 | 32094 ft | 440 kts | 335° |
| 2026-05-05 22:07 | 54.54089 | -2.65614 | 32053 ft | 439 kts | 335° |
| 2026-05-05 22:07 | 54.56895 | -2.67601 | 31807 ft | 432 kts | 335° |
| 2026-05-05 22:08 | 54.59652 | -2.69556 | 31523 ft | 424 kts | 334° |
| 2026-05-05 22:08 | 54.62371 | -2.71488 | 31089 ft | 420 kts | 334° |
| 2026-05-05 22:08 | 54.65067 | -2.73408 | 30572 ft | 418 kts | 334° |
| 2026-05-05 22:08 | 54.67754 | -2.75325 | 30042 ft | 417 kts | 334° |
| 2026-05-05 22:09 | 54.70426 | -2.77234 | 29460 ft | 414 kts | 334° |
| 2026-05-05 22:09 | 54.73078 | -2.79130 | 28975 ft | 411 kts | 334° |
| 2026-05-05 22:09 | 54.75712 | -2.81016 | 28439 ft | 408 kts | 334° |
| 2026-05-05 22:09 | 54.78327 | -2.82891 | 27926 ft | 405 kts | 334° |
| 2026-05-05 22:10 | 54.80921 | -2.84754 | 27424 ft | 402 kts | 334° |
| 2026-05-05 22:10 | 54.83498 | -2.86607 | 26916 ft | 399 kts | 334° |
| 2026-05-05 22:10 | 54.86050 | -2.88444 | 26401 ft | 397 kts | 334° |
| 2026-05-05 22:10 | 54.88555 | -2.90250 | 26040 ft | 391 kts | 334° |
| 2026-05-05 22:11 | 54.91107 | -2.92094 | 25366 ft | 394 kts | 334° |
| 2026-05-05 22:11 | 54.93604 | -2.93901 | 24805 ft | 394 kts | 334° |
| 2026-05-05 22:11 | 54.96140 | -2.95738 | 24264 ft | 394 kts | 335° |
| 2026-05-05 22:11 | 54.98666 | -2.97569 | 23717 ft | 393 kts | 335° |
| 2026-05-05 22:12 | 55.01187 | -2.99399 | 23084 ft | 392 kts | 335° |
| 2026-05-05 22:12 | 55.03694 | -3.01221 | 22536 ft | 389 kts | 334° |
| 2026-05-05 22:12 | 55.06182 | -3.03031 | 22004 ft | 385 kts | 334° |
| 2026-05-05 22:12 | 55.08646 | -3.04826 | 21465 ft | 382 kts | 334° |
| 2026-05-05 22:13 | 55.11089 | -3.06609 | 20943 ft | 379 kts | 334° |
| 2026-05-05 22:13 | 55.13544 | -3.08403 | 20424 ft | 375 kts | 334° |
| 2026-05-05 22:13 | 55.15894 | -3.10121 | 20057 ft | 368 kts | 334° |
| 2026-05-05 22:13 | 55.18250 | -3.11848 | 19472 ft | 368 kts | 334° |
| 2026-05-05 22:14 | 55.20611 | -3.13581 | 18933 ft | 366 kts | 334° |
| 2026-05-05 22:14 | 55.22952 | -3.15300 | 18455 ft | 363 kts | 334° |
| 2026-05-05 22:14 | 55.25274 | -3.17007 | 17892 ft | 360 kts | 334° |
| 2026-05-05 22:14 | 55.27571 | -3.18701 | 17375 ft | 357 kts | 334° |
| 2026-05-05 22:15 | 55.29924 | -3.20052 | 16798 ft | 358 kts | 349° |
| 2026-05-05 22:15 | 55.32419 | -3.20131 | 16267 ft | 359 kts | 0° |
| 2026-05-05 22:15 | 55.34895 | -3.19766 | 15770 ft | 356 kts | 2° |
| 2026-05-05 22:15 | 55.37354 | -3.19343 | 15271 ft | 352 kts | 2° |
| 2026-05-05 22:16 | 55.39782 | -3.18930 | 14695 ft | 348 kts | 2° |
| 2026-05-05 22:16 | 55.42186 | -3.18532 | 13995 ft | 345 kts | 2° |
| 2026-05-05 22:16 | 55.44559 | -3.18149 | 13286 ft | 341 kts | 2° |
| 2026-05-05 22:16 | 55.46905 | -3.17774 | 12582 ft | 336 kts | 2° |
| 2026-05-05 22:17 | 55.49213 | -3.17409 | 11950 ft | 331 kts | 3° |
| 2026-05-05 22:17 | 55.51483 | -3.17051 | 11285 ft | 325 kts | 3° |
| 2026-05-05 22:17 | 55.53736 | -3.16736 | 10590 ft | 322 kts | 1° |
| 2026-05-05 22:17 | 55.55956 | -3.16551 | 9941 ft | 318 kts | 360° |
| 2026-05-05 22:18 | 55.58123 | -3.16503 | 9574 ft | 302 kts | 358° |
| 2026-05-05 22:18 | 55.60163 | -3.16580 | 9318 ft | 286 kts | 356° |
| 2026-05-05 22:18 | 55.62108 | -3.16768 | 8975 ft | 274 kts | 354° |
| 2026-05-05 22:18 | 55.63996 | -3.17063 | 8423 ft | 272 kts | 353° |
| 2026-05-05 22:19 | 55.65843 | -3.17466 | 7872 ft | 270 kts | 351° |
| 2026-05-05 22:19 | 55.67690 | -3.17981 | 7355 ft | 267 kts | 349° |
| 2026-05-05 22:19 | 55.69464 | -3.18847 | 6831 ft | 264 kts | 332° |
| 2026-05-05 22:19 | 55.70830 | -3.20962 | 6313 ft | 263 kts | 305° |
| 2026-05-05 22:20 | 55.71458 | -3.23970 | 5782 ft | 264 kts | 277° |
| 2026-05-05 22:20 | 55.71413 | -3.27247 | 5259 ft | 267 kts | 266° |
| 2026-05-05 22:20 | 55.71192 | -3.30530 | 4736 ft | 270 kts | 264° |
| 2026-05-05 22:20 | 55.71047 | -3.33829 | 4225 ft | 266 kts | 274° |
| 2026-05-05 22:21 | 55.71233 | -3.37004 | 4011 ft | 252 kts | 283° |
| 2026-05-05 22:21 | 55.71670 | -3.39953 | 3995 ft | 246 kts | 289° |
| 2026-05-05 22:21 | 55.72171 | -3.42875 | 3998 ft | 248 kts | 289° |
| 2026-05-05 22:21 | 55.72681 | -3.45804 | 4001 ft | 249 kts | 289° |
| 2026-05-05 22:22 | 55.73309 | -3.48648 | 4022 ft | 246 kts | 296° |
| 2026-05-05 22:22 | 55.74007 | -3.51430 | 4008 ft | 247 kts | 295° |
| 2026-05-05 22:22 | 55.74622 | -3.54288 | 4000 ft | 248 kts | 291° |
| 2026-05-05 22:22 | 55.75173 | -3.57179 | 3998 ft | 247 kts | 298° |
| 2026-05-05 22:23 | 55.76245 | -3.59484 | 3999 ft | 241 kts | 324° |
| 2026-05-05 22:23 | 55.77558 | -3.61109 | 3968 ft | 220 kts | 330° |
| 2026-05-05 22:23 | 55.78815 | -3.62541 | 3738 ft | 209 kts | 331° |
| 2026-05-05 22:23 | 55.80005 | -3.63907 | 3553 ft | 199 kts | 331° |
| 2026-05-05 22:24 | 55.81128 | -3.65216 | 3492 ft | 190 kts | 331° |
| 2026-05-05 22:24 | 55.82271 | -3.66367 | 3502 ft | 188 kts | 339° |
| 2026-05-05 22:24 | 55.83472 | -3.67205 | 3483 ft | 181 kts | 1° |
| 2026-05-05 22:24 | 55.84593 | -3.66534 | 3519 ft | 171 kts | 38° |
| 2026-05-05 22:25 | 55.85453 | -3.65087 | 3504 ft | 171 kts | 53° |
| 2026-05-05 22:25 | 55.86118 | -3.63333 | 3445 ft | 170 kts | 59° |
| 2026-05-05 22:25 | 55.86721 | -3.61589 | 3229 ft | 162 kts | 59° |
| 2026-05-05 22:25 | 55.87302 | -3.59888 | 2995 ft | 160 kts | 60° |
| 2026-05-05 22:26 | 55.87879 | -3.58197 | 2764 ft | 159 kts | 60° |
| 2026-05-05 22:26 | 55.88450 | -3.56522 | 2538 ft | 158 kts | 61° |
| 2026-05-05 22:26 | 55.89015 | -3.54863 | 2307 ft | 151 kts | 61° |
| 2026-05-05 22:26 | 55.89524 | -3.53370 | 2137 ft | 135 kts | 62° |
| 2026-05-05 22:27 | 55.89999 | -3.51971 | 1939 ft | 131 kts | 62° |
| 2026-05-05 22:27 | 55.90472 | -3.50575 | 1759 ft | 132 kts | 62° |
| 2026-05-05 22:27 | 55.90953 | -3.49159 | 1553 ft | 132 kts | 62° |
| 2026-05-05 22:27 | 55.91426 | -3.47766 | 1373 ft | 134 kts | 60° |
| 2026-05-05 22:28 | 55.91917 | -3.46323 | 1176 ft | 135 kts | 61° |
| 2026-05-05 22:28 | 55.92399 | -3.44903 | 973 ft | 136 kts | 61° |
| 2026-05-05 22:28 | 55.92898 | -3.43433 | 780 ft | 137 kts | 61° |
| 2026-05-05 22:28 | 55.93385 | -3.41996 | 593 ft | 137 kts | 61° |
| 2026-05-05 22:29 | 55.93886 | -3.40525 | 378 ft | 136 kts | 60° |
| 2026-05-05 22:29 | 55.94377 | -3.39100 | 225 ft | 139 kts | 61° |
| 2026-05-05 22:29 | 55.94878 | -3.37612 | 116 ft | 130 kts | 60° |
| 2026-05-05 22:29 | 55.95262 | -3.36472 | 112 ft | 81 kts | 58° |
| 2026-05-05 22:30 | 55.95464 | -3.35881 | 114 ft | 29 kts | 59° |
| 2026-05-05 22:30 | 55.95557 | -3.35605 | 112 ft | 25 kts | 59° |
| 2026-05-05 22:30 | 55.95535 | -3.35478 | 116 ft | 15 kts | 150° |
| 2026-05-05 22:30 | 55.95422 | -3.35432 | 117 ft | 20 kts | 234° |
| 2026-05-05 22:31 | 55.95334 | -3.35708 | 115 ft | 31 kts | 234° |
| 2026-05-05 22:31 | 55.95225 | -3.36012 | 119 ft | 26 kts | 239° |
| 2026-05-05 22:31 | 55.95147 | -3.36243 | 117 ft | 19 kts | 240° |
| 2026-05-05 22:31 | 55.95088 | -3.36418 | 117 ft | 15 kts | 238° |
| 2026-05-05 22:32 | 55.95034 | -3.36578 | 115 ft | 15 kts | 239° |
| 2026-05-05 22:32 | 55.94979 | -3.36740 | 117 ft | 15 kts | 239° |
| 2026-05-05 22:32 | 55.94919 | -3.36830 | 116 ft | 9 kts | 155° |
| 2026-05-05 22:32 | 55.94896 | -3.36752 | 116 ft | 8 kts | 73° |
| 2026-05-05 22:33 | 55.94906 | -3.36670 | 117 ft | 6 kts | 124° |
| 2026-05-05 22:33 | 55.94875 | -3.36630 | 119 ft | 5 kts | 145° |
| 2026-05-05 22:33 | 55.94861 | -3.36612 | 119 ft | 0 kts | 145° |